sensor_id;sensor_type;location;lat;lon;timestamp;temperature;humidity
3842;DHT22;1936;47.074;15.336;2023-08-07T00:01:52;12.50;96.00
3842;DHT22;1936;47.074;15.336;2023-08-07T00:03:56;12.60;95.50
3842;DHT22;1936;47.074;15.336;2023-08-07T00:06:00;12.60;95.20
3842;DHT22;1936;47.074;15.336;2023-08-07T00:08:02;12.60;95.10
3842;DHT22;1936;47.074;15.336;2023-08-07T00:10:07;12.60;95.60
3842;DHT22;1936;47.074;15.336;2023-08-07T00:12:10;12.70;95.40
3842;DHT22;1936;47.074;15.336;2023-08-07T00:14:14;12.70;95.20
3842;DHT22;1936;47.074;15.336;2023-08-07T00:16:19;12.70;95.30
3842;DHT22;1936;47.074;15.336;2023-08-07T00:18:22;12.80;95.30
3842;DHT22;1936;47.074;15.336;2023-08-07T00:20:26;12.70;95.70
3842;DHT22;1936;47.074;15.336;2023-08-07T00:22:30;12.80;95.40
3842;DHT22;1936;47.074;15.336;2023-08-07T00:24:33;12.80;95.40
3842;DHT22;1936;47.074;15.336;2023-08-07T00:26:37;12.70;95.70
3842;DHT22;1936;47.074;15.336;2023-08-07T00:28:40;12.80;95.40
3842;DHT22;1936;47.074;15.336;2023-08-07T00:30:44;12.80;95.40
3842;DHT22;1936;47.074;15.336;2023-08-07T00:32:48;12.80;95.40
3842;DHT22;1936;47.074;15.336;2023-08-07T00:34:51;12.70;95.50
3842;DHT22;1936;47.074;15.336;2023-08-07T00:36:53;12.80;95.10
3842;DHT22;1936;47.074;15.336;2023-08-07T00:38:57;12.90;95.00
3842;DHT22;1936;47.074;15.336;2023-08-07T00:41:01;12.80;95.20
3842;DHT22;1936;47.074;15.336;2023-08-07T00:43:04;12.60;95.60
3842;DHT22;1936;47.074;15.336;2023-08-07T00:45:07;12.90;95.10
3842;DHT22;1936;47.074;15.336;2023-08-07T00:47:11;12.80;94.90
3842;DHT22;1936;47.074;15.336;2023-08-07T00:49:16;12.70;95.10
3842;DHT22;1936;47.074;15.336;2023-08-07T00:51:20;12.70;95.20
3842;DHT22;1936;47.074;15.336;2023-08-07T00:53:24;12.80;94.80
3842;DHT22;1936;47.074;15.336;2023-08-07T00:55:28;12.70;94.50
3842;DHT22;1936;47.074;15.336;2023-08-07T00:57:32;12.70;94.50
3842;DHT22;1936;47.074;15.336;2023-08-07T00:59:35;12.60;94.50
3842;DHT22;1936;47.074;15.336;2023-08-07T01:01:39;12.50;94.70
3842;DHT22;1936;47.074;15.336;2023-08-07T01:03:42;12.40;94.70
3842;DHT22;1936;47.074;15.336;2023-08-07T01:05:47;12.40;94.60
3842;DHT22;1936;47.074;15.336;2023-08-07T01:07:50;12.30;94.60
3842;DHT22;1936;47.074;15.336;2023-08-07T01:09:56;12.10;94.80
3842;DHT22;1936;47.074;15.336;2023-08-07T01:12:13;12.20;94.60
3842;DHT22;1936;47.074;15.336;2023-08-07T01:18:34;12.00;98.00
3842;DHT22;1936;47.074;15.336;2023-08-07T01:20:37;12.00;99.10
3842;DHT22;1936;47.074;15.336;2023-08-07T01:24:45;11.70;99.90
3842;DHT22;1936;47.074;15.336;2023-08-07T01:26:50;11.90;99.90
3842;DHT22;1936;47.074;15.336;2023-08-07T01:31:05;11.80;99.90
3842;DHT22;1936;47.074;15.336;2023-08-07T01:33:16;11.70;99.90
3842;DHT22;1936;47.074;15.336;2023-08-07T01:35:22;11.60;99.90
3842;DHT22;1936;47.074;15.336;2023-08-07T01:37:29;11.60;99.90
3842;DHT22;1936;47.074;15.336;2023-08-07T01:39:35;11.60;99.90
3842;DHT22;1936;47.074;15.336;2023-08-07T01:41:41;11.60;99.90
3842;DHT22;1936;47.074;15.336;2023-08-07T01:43:44;11.50;99.90
3842;DHT22;1936;47.074;15.336;2023-08-07T01:45:48;11.50;99.90
3842;DHT22;1936;47.074;15.336;2023-08-07T01:47:51;11.20;97.60
3842;DHT22;1936;47.074;15.336;2023-08-07T01:49:54;11.20;99.90
3842;DHT22;1936;47.074;15.336;2023-08-07T01:51:58;11.30;97.60
3842;DHT22;1936;47.074;15.336;2023-08-07T01:54:01;11.20;97.50
3842;DHT22;1936;47.074;15.336;2023-08-07T01:56:06;11.20;96.10
3842;DHT22;1936;47.074;15.336;2023-08-07T01:58:09;11.20;96.50
3842;DHT22;1936;47.074;15.336;2023-08-07T02:00:14;11.10;97.00
3842;DHT22;1936;47.074;15.336;2023-08-07T02:02:16;11.10;97.20
3842;DHT22;1936;47.074;15.336;2023-08-07T02:04:20;11.30;97.00
3842;DHT22;1936;47.074;15.336;2023-08-07T02:06:22;11.20;97.40
3842;DHT22;1936;47.074;15.336;2023-08-07T02:08:26;11.00;97.50
3842;DHT22;1936;47.074;15.336;2023-08-07T02:10:29;11.00;98.30
3842;DHT22;1936;47.074;15.336;2023-08-07T02:12:34;10.90;96.90
3842;DHT22;1936;47.074;15.336;2023-08-07T02:14:37;10.90;96.20
3842;DHT22;1936;47.074;15.336;2023-08-07T02:16:41;10.90;97.10
3842;DHT22;1936;47.074;15.336;2023-08-07T02:18:43;10.90;97.20
3842;DHT22;1936;47.074;15.336;2023-08-07T02:20:47;10.80;95.80
3842;DHT22;1936;47.074;15.336;2023-08-07T02:22:50;10.80;95.70
3842;DHT22;1936;47.074;15.336;2023-08-07T02:24:53;10.80;95.50
3842;DHT22;1936;47.074;15.336;2023-08-07T02:26:56;10.70;95.50
3842;DHT22;1936;47.074;15.336;2023-08-07T02:29:00;10.60;95.60
3842;DHT22;1936;47.074;15.336;2023-08-07T02:31:04;10.60;95.60
3842;DHT22;1936;47.074;15.336;2023-08-07T02:33:08;10.80;96.60
3842;DHT22;1936;47.074;15.336;2023-08-07T02:35:11;10.70;99.20
3842;DHT22;1936;47.074;15.336;2023-08-07T02:37:15;10.80;99.90
3842;DHT22;1936;47.074;15.336;2023-08-07T02:39:19;10.70;99.90
3842;DHT22;1936;47.074;15.336;2023-08-07T02:41:23;10.70;99.90
3842;DHT22;1936;47.074;15.336;2023-08-07T02:43:26;10.70;99.90
3842;DHT22;1936;47.074;15.336;2023-08-07T02:45:32;10.70;99.90
3842;DHT22;1936;47.074;15.336;2023-08-07T02:47:37;10.70;99.40
3842;DHT22;1936;47.074;15.336;2023-08-07T02:49:40;10.50;96.60
3842;DHT22;1936;47.074;15.336;2023-08-07T02:51:44;10.50;96.00
3842;DHT22;1936;47.074;15.336;2023-08-07T02:53:47;10.60;97.10
3842;DHT22;1936;47.074;15.336;2023-08-07T02:55:50;10.50;98.60
3842;DHT22;1936;47.074;15.336;2023-08-07T02:57:54;10.50;99.90
3842;DHT22;1936;47.074;15.336;2023-08-07T02:59:57;10.40;99.90
3842;DHT22;1936;47.074;15.336;2023-08-07T03:02:02;10.60;99.90
3842;DHT22;1936;47.074;15.336;2023-08-07T03:04:05;10.40;99.90
3842;DHT22;1936;47.074;15.336;2023-08-07T03:06:09;10.10;95.60
3842;DHT22;1936;47.074;15.336;2023-08-07T03:08:12;10.30;95.70
3842;DHT22;1936;47.074;15.336;2023-08-07T03:10:16;10.40;95.80
3842;DHT22;1936;47.074;15.336;2023-08-07T03:12:19;10.40;95.80
3842;DHT22;1936;47.074;15.336;2023-08-07T03:14:23;10.30;95.90
3842;DHT22;1936;47.074;15.336;2023-08-07T03:16:26;10.30;96.20
3842;DHT22;1936;47.074;15.336;2023-08-07T03:18:31;10.50;96.10
3842;DHT22;1936;47.074;15.336;2023-08-07T03:20:36;10.40;96.20
3842;DHT22;1936;47.074;15.336;2023-08-07T03:22:40;10.50;96.40
3842;DHT22;1936;47.074;15.336;2023-08-07T03:24:46;10.50;96.50
3842;DHT22;1936;47.074;15.336;2023-08-07T03:26:50;10.70;96.40
3842;DHT22;1936;47.074;15.336;2023-08-07T03:28:53;10.70;96.30
3842;DHT22;1936;47.074;15.336;2023-08-07T03:30:56;10.80;96.20
3842;DHT22;1936;47.074;15.336;2023-08-07T03:33:00;10.80;96.50
3842;DHT22;1936;47.074;15.336;2023-08-07T03:35:05;10.80;96.30
3842;DHT22;1936;47.074;15.336;2023-08-07T03:37:09;10.80;96.40
3842;DHT22;1936;47.074;15.336;2023-08-07T03:39:12;10.60;96.70
3842;DHT22;1936;47.074;15.336;2023-08-07T03:41:15;10.80;96.40
3842;DHT22;1936;47.074;15.336;2023-08-07T03:43:19;10.70;97.00
3842;DHT22;1936;47.074;15.336;2023-08-07T03:45:22;10.80;96.70
3842;DHT22;1936;47.074;15.336;2023-08-07T03:47:25;11.00;96.50
3842;DHT22;1936;47.074;15.336;2023-08-07T03:49:28;11.10;95.90
3842;DHT22;1936;47.074;15.336;2023-08-07T03:51:33;10.90;96.30
3842;DHT22;1936;47.074;15.336;2023-08-07T03:53:36;11.00;96.40
3842;DHT22;1936;47.074;15.336;2023-08-07T03:55:39;11.00;96.60
3842;DHT22;1936;47.074;15.336;2023-08-07T03:57:44;11.00;96.50
3842;DHT22;1936;47.074;15.336;2023-08-07T03:59:47;11.00;96.50
3842;DHT22;1936;47.074;15.336;2023-08-07T04:01:51;11.00;96.60
3842;DHT22;1936;47.074;15.336;2023-08-07T04:03:54;11.10;96.40
3842;DHT22;1936;47.074;15.336;2023-08-07T04:06:01;11.10;96.50
3842;DHT22;1936;47.074;15.336;2023-08-07T04:08:07;11.20;96.30
3842;DHT22;1936;47.074;15.336;2023-08-07T04:10:11;11.30;96.40
3842;DHT22;1936;47.074;15.336;2023-08-07T04:12:14;11.10;96.80
3842;DHT22;1936;47.074;15.336;2023-08-07T04:14:17;11.30;96.50
3842;DHT22;1936;47.074;15.336;2023-08-07T04:16:21;11.30;96.30
3842;DHT22;1936;47.074;15.336;2023-08-07T04:18:24;11.30;96.30
3842;DHT22;1936;47.074;15.336;2023-08-07T04:20:28;11.30;96.70
3842;DHT22;1936;47.074;15.336;2023-08-07T04:22:31;11.50;96.30
3842;DHT22;1936;47.074;15.336;2023-08-07T04:24:35;11.60;96.00
3842;DHT22;1936;47.074;15.336;2023-08-07T04:26:39;11.40;96.70
3842;DHT22;1936;47.074;15.336;2023-08-07T04:28:42;11.60;96.30
3842;DHT22;1936;47.074;15.336;2023-08-07T04:30:47;11.60;96.40
3842;DHT22;1936;47.074;15.336;2023-08-07T04:32:50;11.60;96.60
3842;DHT22;1936;47.074;15.336;2023-08-07T04:34:54;11.70;96.40
3842;DHT22;1936;47.074;15.336;2023-08-07T04:36:57;11.80;96.20
3842;DHT22;1936;47.074;15.336;2023-08-07T04:39:01;11.70;95.90
3842;DHT22;1936;47.074;15.336;2023-08-07T04:41:06;11.80;96.20
3842;DHT22;1936;47.074;15.336;2023-08-07T04:43:09;11.80;96.10
3842;DHT22;1936;47.074;15.336;2023-08-07T04:45:12;12.00;96.30
3842;DHT22;1936;47.074;15.336;2023-08-07T04:47:16;12.10;95.90
3842;DHT22;1936;47.074;15.336;2023-08-07T04:49:19;12.00;96.10
3842;DHT22;1936;47.074;15.336;2023-08-07T04:51:23;12.10;96.40
3842;DHT22;1936;47.074;15.336;2023-08-07T04:53:26;12.30;96.30
3842;DHT22;1936;47.074;15.336;2023-08-07T04:55:29;12.50;96.10
3842;DHT22;1936;47.074;15.336;2023-08-07T04:57:34;12.70;95.90
3842;DHT22;1936;47.074;15.336;2023-08-07T04:59:38;12.80;95.70
3842;DHT22;1936;47.074;15.336;2023-08-07T05:01:41;13.00;96.50
3842;DHT22;1936;47.074;15.336;2023-08-07T05:03:44;13.20;96.30
3842;DHT22;1936;47.074;15.336;2023-08-07T05:05:48;13.30;96.30
3842;DHT22;1936;47.074;15.336;2023-08-07T05:07:54;13.50;96.90
3842;DHT22;1936;47.074;15.336;2023-08-07T05:09:57;13.60;96.10
3842;DHT22;1936;47.074;15.336;2023-08-07T05:12:02;13.70;94.20
3842;DHT22;1936;47.074;15.336;2023-08-07T05:14:07;13.80;94.40
3842;DHT22;1936;47.074;15.336;2023-08-07T05:16:11;14.00;94.20
3842;DHT22;1936;47.074;15.336;2023-08-07T05:18:14;13.90;94.20
3842;DHT22;1936;47.074;15.336;2023-08-07T05:20:18;13.70;94.70
3842;DHT22;1936;47.074;15.336;2023-08-07T05:22:22;14.00;94.70
3842;DHT22;1936;47.074;15.336;2023-08-07T05:24:25;14.00;93.80
3842;DHT22;1936;47.074;15.336;2023-08-07T05:26:28;14.10;93.20
3842;DHT22;1936;47.074;15.336;2023-08-07T05:28:32;14.30;93.70
3842;DHT22;1936;47.074;15.336;2023-08-07T05:30:37;14.60;93.70
3842;DHT22;1936;47.074;15.336;2023-08-07T05:32:41;14.80;93.60
3842;DHT22;1936;47.074;15.336;2023-08-07T05:34:45;15.00;93.60
3842;DHT22;1936;47.074;15.336;2023-08-07T05:36:49;15.20;93.40
3842;DHT22;1936;47.074;15.336;2023-08-07T05:38:52;15.30;92.40
3842;DHT22;1936;47.074;15.336;2023-08-07T05:40:56;15.50;92.50
3842;DHT22;1936;47.074;15.336;2023-08-07T05:42:59;15.70;92.40
3842;DHT22;1936;47.074;15.336;2023-08-07T05:45:04;15.80;92.10
3842;DHT22;1936;47.074;15.336;2023-08-07T05:47:09;15.90;91.50
3842;DHT22;1936;47.074;15.336;2023-08-07T05:49:12;16.00;91.50
3842;DHT22;1936;47.074;15.336;2023-08-07T05:51:15;16.00;91.40
3842;DHT22;1936;47.074;15.336;2023-08-07T05:53:19;15.70;91.50
3842;DHT22;1936;47.074;15.336;2023-08-07T05:55:23;15.10;92.40
3842;DHT22;1936;47.074;15.336;2023-08-07T05:57:27;15.40;92.80
3842;DHT22;1936;47.074;15.336;2023-08-07T05:59:30;15.50;92.70
3842;DHT22;1936;47.074;15.336;2023-08-07T06:01:36;15.40;92.80
3842;DHT22;1936;47.074;15.336;2023-08-07T06:03:41;15.70;92.60
3842;DHT22;1936;47.074;15.336;2023-08-07T06:05:45;15.30;92.60
3842;DHT22;1936;47.074;15.336;2023-08-07T06:07:48;14.80;92.90
3842;DHT22;1936;47.074;15.336;2023-08-07T06:09:52;14.90;94.40
3842;DHT22;1936;47.074;15.336;2023-08-07T06:11:55;15.40;94.50
3842;DHT22;1936;47.074;15.336;2023-08-07T06:13:59;15.60;93.80
3842;DHT22;1936;47.074;15.336;2023-08-07T06:16:03;16.00;93.80
3842;DHT22;1936;47.074;15.336;2023-08-07T06:18:08;16.20;93.50
3842;DHT22;1936;47.074;15.336;2023-08-07T06:20:13;16.60;92.40
3842;DHT22;1936;47.074;15.336;2023-08-07T06:22:18;16.60;92.00
3842;DHT22;1936;47.074;15.336;2023-08-07T06:24:21;17.00;92.30
3842;DHT22;1936;47.074;15.336;2023-08-07T06:26:25;17.40;91.50
3842;DHT22;1936;47.074;15.336;2023-08-07T06:28:28;17.40;90.80
3842;DHT22;1936;47.074;15.336;2023-08-07T06:30:31;17.30;90.60
3842;DHT22;1936;47.074;15.336;2023-08-07T06:32:35;17.60;91.50
3842;DHT22;1936;47.074;15.336;2023-08-07T06:34:39;17.70;91.20
3842;DHT22;1936;47.074;15.336;2023-08-07T06:36:44;18.10;90.70
3842;DHT22;1936;47.074;15.336;2023-08-07T06:38:46;18.50;89.00
3842;DHT22;1936;47.074;15.336;2023-08-07T06:40:50;18.90;89.50
3842;DHT22;1936;47.074;15.336;2023-08-07T06:42:53;19.10;86.20
3842;DHT22;1936;47.074;15.336;2023-08-07T06:44:57;19.30;83.40
3842;DHT22;1936;47.074;15.336;2023-08-07T06:47:00;19.40;85.70
3842;DHT22;1936;47.074;15.336;2023-08-07T06:49:04;19.00;86.10
3842;DHT22;1936;47.074;15.336;2023-08-07T06:51:07;19.50;87.90
3842;DHT22;1936;47.074;15.336;2023-08-07T06:53:12;20.00;88.30
3842;DHT22;1936;47.074;15.336;2023-08-07T06:55:16;19.80;87.60
3842;DHT22;1936;47.074;15.336;2023-08-07T06:57:19;19.90;85.40
3842;DHT22;1936;47.074;15.336;2023-08-07T06:59:23;19.50;86.00
3842;DHT22;1936;47.074;15.336;2023-08-07T07:01:27;19.10;84.20
3842;DHT22;1936;47.074;15.336;2023-08-07T07:03:31;19.20;86.10
3842;DHT22;1936;47.074;15.336;2023-08-07T07:05:34;18.30;83.10
3842;DHT22;1936;47.074;15.336;2023-08-07T07:07:38;18.00;83.40
3842;DHT22;1936;47.074;15.336;2023-08-07T07:09:43;18.70;84.80
3842;DHT22;1936;47.074;15.336;2023-08-07T07:11:46;18.80;81.80
3842;DHT22;1936;47.074;15.336;2023-08-07T07:13:49;19.60;82.10
3842;DHT22;1936;47.074;15.336;2023-08-07T07:15:53;20.00;82.70
3842;DHT22;1936;47.074;15.336;2023-08-07T07:17:57;20.70;67.00
3842;DHT22;1936;47.074;15.336;2023-08-07T07:20:02;20.20;70.70
3842;DHT22;1936;47.074;15.336;2023-08-07T07:22:05;20.30;76.70
3842;DHT22;1936;47.074;15.336;2023-08-07T07:24:09;20.80;71.80
3842;DHT22;1936;47.074;15.336;2023-08-07T07:26:13;21.60;67.80
3842;DHT22;1936;47.074;15.336;2023-08-07T07:28:16;21.70;62.50
3842;DHT22;1936;47.074;15.336;2023-08-07T07:30:20;22.30;59.00
3842;DHT22;1936;47.074;15.336;2023-08-07T07:32:24;22.60;56.90
3842;DHT22;1936;47.074;15.336;2023-08-07T07:34:31;23.20;56.20
3842;DHT22;1936;47.074;15.336;2023-08-07T07:36:35;24.20;51.40
3842;DHT22;1936;47.074;15.336;2023-08-07T07:38:38;24.20;50.10
3842;DHT22;1936;47.074;15.336;2023-08-07T07:40:42;24.20;47.80
3842;DHT22;1936;47.074;15.336;2023-08-07T07:42:47;24.80;53.50
3842;DHT22;1936;47.074;15.336;2023-08-07T07:44:50;25.40;50.90
3842;DHT22;1936;47.074;15.336;2023-08-07T07:46:54;25.20;44.70
3842;DHT22;1936;47.074;15.336;2023-08-07T07:48:58;24.70;45.60
3842;DHT22;1936;47.074;15.336;2023-08-07T07:51:03;24.20;49.40
3842;DHT22;1936;47.074;15.336;2023-08-07T07:53:07;23.70;49.60
3842;DHT22;1936;47.074;15.336;2023-08-07T07:55:10;23.20;54.80
3842;DHT22;1936;47.074;15.336;2023-08-07T07:57:15;23.80;52.60
3842;DHT22;1936;47.074;15.336;2023-08-07T07:59:21;23.20;53.80
3842;DHT22;1936;47.074;15.336;2023-08-07T08:01:24;23.00;49.00
3842;DHT22;1936;47.074;15.336;2023-08-07T08:03:27;23.40;54.90
3842;DHT22;1936;47.074;15.336;2023-08-07T08:05:32;23.70;54.80
3842;DHT22;1936;47.074;15.336;2023-08-07T08:07:37;22.80;49.60
3842;DHT22;1936;47.074;15.336;2023-08-07T08:09:41;22.80;54.90
3842;DHT22;1936;47.074;15.336;2023-08-07T08:11:44;23.20;54.70
3842;DHT22;1936;47.074;15.336;2023-08-07T08:13:48;23.20;52.40
3842;DHT22;1936;47.074;15.336;2023-08-07T08:15:54;22.80;51.10
3842;DHT22;1936;47.074;15.336;2023-08-07T08:17:58;23.40;47.60
3842;DHT22;1936;47.074;15.336;2023-08-07T08:20:00;24.40;49.80
3842;DHT22;1936;47.074;15.336;2023-08-07T08:22:04;24.30;50.70
3842;DHT22;1936;47.074;15.336;2023-08-07T08:24:08;25.80;48.10
3842;DHT22;1936;47.074;15.336;2023-08-07T08:26:11;27.40;43.30
3842;DHT22;1936;47.074;15.336;2023-08-07T08:28:15;29.90;32.90
3842;DHT22;1936;47.074;15.336;2023-08-07T08:30:18;29.80;35.30
3842;DHT22;1936;47.074;15.336;2023-08-07T08:32:23;29.70;36.30
3842;DHT22;1936;47.074;15.336;2023-08-07T08:34:27;29.30;40.30
3842;DHT22;1936;47.074;15.336;2023-08-07T08:36:30;30.10;38.60
3842;DHT22;1936;47.074;15.336;2023-08-07T08:38:34;30.80;52.00
3842;DHT22;1936;47.074;15.336;2023-08-07T08:42:43;32.30;37.60
3842;DHT22;1936;47.074;15.336;2023-08-07T08:44:51;31.20;30.30
3842;DHT22;1936;47.074;15.336;2023-08-07T08:46:55;30.30;33.60
3842;DHT22;1936;47.074;15.336;2023-08-07T08:49:04;29.40;30.10
3842;DHT22;1936;47.074;15.336;2023-08-07T08:51:09;28.90;34.70
3842;DHT22;1936;47.074;15.336;2023-08-07T08:53:14;28.60;30.20
3842;DHT22;1936;47.074;15.336;2023-08-07T08:55:19;27.90;31.10
3842;DHT22;1936;47.074;15.336;2023-08-07T08:57:24;27.40;34.10
3842;DHT22;1936;47.074;15.336;2023-08-07T08:59:29;26.80;33.90
3842;DHT22;1936;47.074;15.336;2023-08-07T09:01:32;27.30;34.10
3842;DHT22;1936;47.074;15.336;2023-08-07T09:03:36;27.90;34.90
3842;DHT22;1936;47.074;15.336;2023-08-07T09:05:41;27.60;34.10
3842;DHT22;1936;47.074;15.336;2023-08-07T09:07:44;28.30;30.70
3842;DHT22;1936;47.074;15.336;2023-08-07T09:09:49;28.70;31.50
3842;DHT22;1936;47.074;15.336;2023-08-07T09:11:54;29.00;35.50
3842;DHT22;1936;47.074;15.336;2023-08-07T09:13:59;28.30;28.90
3842;DHT22;1936;47.074;15.336;2023-08-07T09:16:07;27.50;32.60
3842;DHT22;1936;47.074;15.336;2023-08-07T09:18:10;27.00;30.20
3842;DHT22;1936;47.074;15.336;2023-08-07T09:20:14;26.40;30.80
3842;DHT22;1936;47.074;15.336;2023-08-07T09:22:19;24.90;35.10
3842;DHT22;1936;47.074;15.336;2023-08-07T09:24:23;25.10;38.70
3842;DHT22;1936;47.074;15.336;2023-08-07T09:26:26;24.70;33.40
3842;DHT22;1936;47.074;15.336;2023-08-07T09:28:30;25.30;38.60
3842;DHT22;1936;47.074;15.336;2023-08-07T09:30:37;24.00;42.40
3842;DHT22;1936;47.074;15.336;2023-08-07T09:32:40;23.60;37.90
3842;DHT22;1936;47.074;15.336;2023-08-07T09:34:44;23.70;38.80
3842;DHT22;1936;47.074;15.336;2023-08-07T09:36:48;24.20;38.30
3842;DHT22;1936;47.074;15.336;2023-08-07T09:38:53;23.90;34.70
3842;DHT22;1936;47.074;15.336;2023-08-07T09:40:57;24.10;37.10
3842;DHT22;1936;47.074;15.336;2023-08-07T09:43:01;23.00;37.30
3842;DHT22;1936;47.074;15.336;2023-08-07T09:45:19;23.30;42.00
3842;DHT22;1936;47.074;15.336;2023-08-07T09:47:23;23.30;41.10
3842;DHT22;1936;47.074;15.336;2023-08-07T09:49:32;23.00;42.20
3842;DHT22;1936;47.074;15.336;2023-08-07T09:51:42;23.50;40.20
3842;DHT22;1936;47.074;15.336;2023-08-07T09:53:47;23.40;42.00
3842;DHT22;1936;47.074;15.336;2023-08-07T09:55:53;23.40;37.40
3842;DHT22;1936;47.074;15.336;2023-08-07T09:57:56;23.30;40.30
3842;DHT22;1936;47.074;15.336;2023-08-07T10:00:00;22.40;41.70
3842;DHT22;1936;47.074;15.336;2023-08-07T10:02:04;22.70;48.60
3842;DHT22;1936;47.074;15.336;2023-08-07T10:04:08;23.30;44.20
3842;DHT22;1936;47.074;15.336;2023-08-07T10:06:17;23.70;44.20
3842;DHT22;1936;47.074;15.336;2023-08-07T10:08:22;23.30;38.00
3842;DHT22;1936;47.074;15.336;2023-08-07T10:10:26;23.60;39.60
3842;DHT22;1936;47.074;15.336;2023-08-07T10:12:31;23.70;40.30
3842;DHT22;1936;47.074;15.336;2023-08-07T10:14:35;23.50;39.70
3842;DHT22;1936;47.074;15.336;2023-08-07T10:16:40;23.50;40.30
3842;DHT22;1936;47.074;15.336;2023-08-07T10:18:43;23.90;40.10
3842;DHT22;1936;47.074;15.336;2023-08-07T10:20:47;24.70;36.00
3842;DHT22;1936;47.074;15.336;2023-08-07T10:22:52;25.00;37.50
3842;DHT22;1936;47.074;15.336;2023-08-07T10:24:57;24.50;36.70
3842;DHT22;1936;47.074;15.336;2023-08-07T10:27:02;23.80;38.70
3842;DHT22;1936;47.074;15.336;2023-08-07T10:29:10;24.10;42.50
3842;DHT22;1936;47.074;15.336;2023-08-07T10:31:14;24.90;39.30
3842;DHT22;1936;47.074;15.336;2023-08-07T10:33:18;25.70;40.80
3842;DHT22;1936;47.074;15.336;2023-08-07T10:35:25;25.90;36.60
3842;DHT22;1936;47.074;15.336;2023-08-07T10:37:38;25.10;35.60
3842;DHT22;1936;47.074;15.336;2023-08-07T10:40:01;24.20;36.50
3842;DHT22;1936;47.074;15.336;2023-08-07T10:42:06;24.20;39.40
3842;DHT22;1936;47.074;15.336;2023-08-07T10:44:21;24.50;39.00
3842;DHT22;1936;47.074;15.336;2023-08-07T10:46:24;24.40;37.00
3842;DHT22;1936;47.074;15.336;2023-08-07T10:48:28;24.40;39.70
3842;DHT22;1936;47.074;15.336;2023-08-07T10:50:32;23.90;38.80
3842;DHT22;1936;47.074;15.336;2023-08-07T10:52:38;23.60;39.90
3842;DHT22;1936;47.074;15.336;2023-08-07T10:54:45;23.80;40.70
3842;DHT22;1936;47.074;15.336;2023-08-07T10:56:52;23.60;40.50
3842;DHT22;1936;47.074;15.336;2023-08-07T10:58:57;23.20;39.90
3842;DHT22;1936;47.074;15.336;2023-08-07T11:01:27;22.30;41.10
3842;DHT22;1936;47.074;15.336;2023-08-07T11:03:35;22.40;46.30
3842;DHT22;1936;47.074;15.336;2023-08-07T11:05:37;22.30;43.80
3842;DHT22;1936;47.074;15.336;2023-08-07T11:07:41;21.50;46.90
3842;DHT22;1936;47.074;15.336;2023-08-07T11:09:46;21.90;43.40
3842;DHT22;1936;47.074;15.336;2023-08-07T11:11:50;21.40;46.00
3842;DHT22;1936;47.074;15.336;2023-08-07T11:13:53;21.70;43.80
3842;DHT22;1936;47.074;15.336;2023-08-07T11:15:57;21.50;42.40
3842;DHT22;1936;47.074;15.336;2023-08-07T11:18:03;21.80;47.20
3842;DHT22;1936;47.074;15.336;2023-08-07T11:20:07;21.70;45.20
3842;DHT22;1936;47.074;15.336;2023-08-07T11:22:15;22.30;44.40
3842;DHT22;1936;47.074;15.336;2023-08-07T11:24:19;22.30;45.90
3842;DHT22;1936;47.074;15.336;2023-08-07T11:26:23;22.80;45.20
3842;DHT22;1936;47.074;15.336;2023-08-07T11:28:27;22.60;42.00
3842;DHT22;1936;47.074;15.336;2023-08-07T11:30:31;22.40;42.40
3842;DHT22;1936;47.074;15.336;2023-08-07T11:32:36;22.70;48.30
3842;DHT22;1936;47.074;15.336;2023-08-07T11:34:48;22.60;40.40
3842;DHT22;1936;47.074;15.336;2023-08-07T11:36:52;22.40;44.30
3842;DHT22;1936;47.074;15.336;2023-08-07T11:38:57;22.20;41.10
3842;DHT22;1936;47.074;15.336;2023-08-07T11:41:02;21.80;40.70
3842;DHT22;1936;47.074;15.336;2023-08-07T11:43:05;21.90;42.60
3842;DHT22;1936;47.074;15.336;2023-08-07T11:45:09;21.80;41.40
3842;DHT22;1936;47.074;15.336;2023-08-07T11:47:13;21.90;42.60
3842;DHT22;1936;47.074;15.336;2023-08-07T11:49:19;21.90;44.90
3842;DHT22;1936;47.074;15.336;2023-08-07T11:51:24;22.40;45.30
3842;DHT22;1936;47.074;15.336;2023-08-07T11:53:29;22.40;46.30
3842;DHT22;1936;47.074;15.336;2023-08-07T11:55:33;22.80;47.90
3842;DHT22;1936;47.074;15.336;2023-08-07T11:57:38;23.20;47.40
3842;DHT22;1936;47.074;15.336;2023-08-07T11:59:49;23.30;45.10
3842;DHT22;1936;47.074;15.336;2023-08-07T12:01:53;23.00;46.20
3842;DHT22;1936;47.074;15.336;2023-08-07T12:04:08;23.30;41.40
3842;DHT22;1936;47.074;15.336;2023-08-07T12:06:12;23.30;42.60
3842;DHT22;1936;47.074;15.336;2023-08-07T12:08:17;22.90;43.40
3842;DHT22;1936;47.074;15.336;2023-08-07T12:10:23;22.70;40.20
3842;DHT22;1936;47.074;15.336;2023-08-07T12:12:26;22.70;42.10
3842;DHT22;1936;47.074;15.336;2023-08-07T12:14:31;22.80;40.90
3842;DHT22;1936;47.074;15.336;2023-08-07T12:16:35;22.50;46.40
3842;DHT22;1936;47.074;15.336;2023-08-07T12:18:38;22.20;44.70
3842;DHT22;1936;47.074;15.336;2023-08-07T12:20:42;22.30;43.50
3842;DHT22;1936;47.074;15.336;2023-08-07T12:22:46;21.90;43.70
3842;DHT22;1936;47.074;15.336;2023-08-07T12:24:52;22.00;44.30
3842;DHT22;1936;47.074;15.336;2023-08-07T12:26:55;21.80;41.90
3842;DHT22;1936;47.074;15.336;2023-08-07T12:28:59;21.70;45.60
3842;DHT22;1936;47.074;15.336;2023-08-07T12:31:03;21.50;44.50
3842;DHT22;1936;47.074;15.336;2023-08-07T12:33:07;21.60;45.60
3842;DHT22;1936;47.074;15.336;2023-08-07T12:35:09;21.90;49.70
3842;DHT22;1936;47.074;15.336;2023-08-07T12:37:16;21.00;42.60
3842;DHT22;1936;47.074;15.336;2023-08-07T12:39:20;21.10;46.90
3842;DHT22;1936;47.074;15.336;2023-08-07T12:41:45;21.70;47.60
3842;DHT22;1936;47.074;15.336;2023-08-07T12:44:10;21.60;52.00
3842;DHT22;1936;47.074;15.336;2023-08-07T12:46:14;21.70;49.10
3842;DHT22;1936;47.074;15.336;2023-08-07T12:48:21;22.10;42.00
3842;DHT22;1936;47.074;15.336;2023-08-07T12:50:24;21.90;43.60
3842;DHT22;1936;47.074;15.336;2023-08-07T12:52:28;22.10;45.90
3842;DHT22;1936;47.074;15.336;2023-08-07T12:54:31;22.40;44.70
3842;DHT22;1936;47.074;15.336;2023-08-07T12:56:35;22.40;40.70
3842;DHT22;1936;47.074;15.336;2023-08-07T12:58:40;21.80;44.70
3842;DHT22;1936;47.074;15.336;2023-08-07T13:00:43;22.10;43.60
3842;DHT22;1936;47.074;15.336;2023-08-07T13:02:48;22.20;43.30
3842;DHT22;1936;47.074;15.336;2023-08-07T13:04:52;22.40;44.60
3842;DHT22;1936;47.074;15.336;2023-08-07T13:06:56;22.40;44.10
3842;DHT22;1936;47.074;15.336;2023-08-07T13:09:00;22.10;45.70
3842;DHT22;1936;47.074;15.336;2023-08-07T13:11:03;22.20;42.00
3842;DHT22;1936;47.074;15.336;2023-08-07T13:13:07;22.40;47.60
3842;DHT22;1936;47.074;15.336;2023-08-07T13:15:13;22.80;46.30
3842;DHT22;1936;47.074;15.336;2023-08-07T13:17:17;23.10;45.60
3842;DHT22;1936;47.074;15.336;2023-08-07T13:19:20;23.20;42.90
3842;DHT22;1936;47.074;15.336;2023-08-07T13:21:23;23.30;42.90
3842;DHT22;1936;47.074;15.336;2023-08-07T13:23:27;23.20;41.60
3842;DHT22;1936;47.074;15.336;2023-08-07T13:25:30;22.30;44.80
3842;DHT22;1936;47.074;15.336;2023-08-07T13:27:34;22.60;47.00
3842;DHT22;1936;47.074;15.336;2023-08-07T13:29:38;22.90;47.30